Roseboom, New York
Current Conditions -  °F | °C
As of 9:55 PM on Friday 19 Dec 2014 (Local Time) from KNY0 Reporting Station
Clear Clear  
Wind Chill: 11°   Ceiling: Unl
Heat Index: 20°   Visibility: 10mi
Dew Point: 15°   Wind: 7mph
Humidity: 81%   Direction: 290°WNW
Pressure: 30.17"   Gusts: NA
Location:  42.74°N, 74.78°W
Report Text: KNY0 200255Z AUTO 29006KT 10SM CLR M06/M09 A3017 RMK AO2 T10651093
Loading
Personal Weather Stations






























Interactive Weather Map New forecast layout! Learn more

10-Day Weather Forecast

Advertisements
Track Severe Weather on mobile